< Typhoon 197101 1971 Season Typhoon 197103 >
Typhoon 197102 (THELMA)
General InformationTrack Information on Google Maps || Disaster Info.ResourceGoogle EarthGE AnimationAtom FeedGeoJSON
Detalied Best Track (Time Zone = UTC)
Year Month Day Hour Lat. Long. Pressure (hPa) Wind (kt) Class Image Chart
1971 3 16 00 11.0 134.0 1004 0 2 -- Chart
1971 3 16 06 11.0 133.0 1002 0 2 -- Chart
1971 3 16 12 11.0 132.0 1002 0 2 -- Chart
1971 3 16 18 11.0 131.0 1002 0 2 -- Chart
1971 3 17 00 11.0 129.5 1004 0 2 -- Chart
1971 3 17 06 10.8 129.4 1002 0 2 -- Chart
1971 3 17 12 10.5 129.3 1002 0 2 -- Chart
1971 3 17 18 10.3 129.3 1000 0 2 -- Chart
1971 3 18 00 10.1 129.2 999 0 2 -- Chart
1971 3 18 06 10.2 129.0 996 0 9 -- Chart
1971 3 18 12 10.2 129.4 1000 0 9 -- Chart
1971 3 18 18 10.3 129.6 998 0 9 -- Chart
1971 3 19 00 10.4 129.9 998 0 9 -- Chart
1971 3 19 06 11.5 130.5 996 0 9 -- Chart
1971 3 19 12 13.0 132.0 996 0 9 -- Chart
1971 3 19 18 15.2 133.8 996 0 9 -- Chart
1971 3 20 00 16.7 134.7 996 0 9 -- Chart
1971 3 20 06 17.3 135.2 994 0 9 -- Chart
1971 3 20 12 18.2 135.6 994 0 9 -- Chart
1971 3 20 18 18.7 136.0 994 0 9 -- Chart
1971 3 21 00 19.3 136.3 994 0 9 -- Chart
1971 3 21 06 20.0 137.0 996 0 6 -- Chart
1971 3 21 12 20.9 137.7 996 0 6 -- Chart
1971 3 21 18 21.7 138.6 998 0 6 -- Chart
1971 3 22 00 22.3 139.8 998 0 6 -- Chart
1971 3 22 06 22.6 141.1 998 0 6 -- Chart
1971 3 22 12 22.7 142.9 998 0 6 -- Chart
1971 3 22 18 23.1 144.5 998 0 6 -- Chart
1971 3 23 00 23.6 146.1 1000 0 6 -- Chart
1971 3 23 06 24.4 147.1 1000 0 6 -- Chart
1971 3 23 12 25.1 148.1 1002 0 6 -- Chart
1971 3 23 18 26.6 150.3 1002 0 6 -- Chart
1971 3 24 00 27.9 153.1 1002 0 6 -- Chart
1971 3 24 06 30.9 157.5 1002 0 6 -- Chart
1971 3 24 12 33.5 161.6 1002 0 6 -- Chart
Japan Meteorological Agency Best Track Data | Correction Date : 1989-06-01
< Typhoon 197101 1971 Season Typhoon 197103 >

Help